M I D A S
Marine Information and Data Acquisition System
Tripno 186 of the Zeeleeuw from 2001-12-17 07:15:00 to 2001-12-17 13:50:14
Back to CruiseResearch ActivitiesStationsMapUnderway DataData graphs

EquipmentUnitsComment
TimeDGPSUTC
LatitudeDGPSDM.mWGS84
LongitudeDGPSDM.mWGS84
TemperatureSBE03/SBE38deg celciusITS90
ConductivitySBE21S/mITS90
SalinitySBE21 Practical Salinity Units
ChlorophylAChelsea fluorimeterg/lCalibrated in Aceton
Missing or incorrect values are displayed as -999
Sea surface data collected by the RV Zeeleeuw from 2001-12-17 07:15:00 to 2001-12-17 13:50:14
Time Latitude Longitude Temperature Conductivity Salinity ChlorophylA
2001-12-17 07:49:02 51°13.687 2°55.905 11.683748 0.000176 0.007821  
2001-12-17 07:50:01 51°13.687 2°55.905 11.679359 0.000176 0.00782  
2001-12-17 07:51:02 51°13.688 2°55.904 11.684845 0.000176 0.007817  
2001-12-17 07:52:02 51°13.688 2°55.904 11.681828 0.000176 0.007814  
2001-12-17 07:53:01 51°13.689 2°55.905 11.680959 0.000176 0.007809  
2001-12-17 07:54:01 51°13.689 2°55.905 11.676525 0.000176 0.007803  
2001-12-17 07:55:02 51°13.689 2°55.905 11.67241 0.000275 0.008121  
2001-12-17 07:56:01 51°13.689 2°55.904 11.670124 0.000176 0.00779  
2001-12-17 07:57:01 51°13.688 2°55.905 11.676982 0.000176 0.007784  
2001-12-17 07:58:01 51°13.688 2°55.905 11.679268 0.000176 0.007778  
2001-12-17 07:59:02 51°13.688 2°55.905 11.666649 0.000176 0.007772  
2001-12-17 08:00:01 51°13.688 2°55.905 11.686857 0.000176 0.007766  
2001-12-17 08:01:01 51°13.688 2°55.904 11.677165 0.000176 0.007761  
2001-12-17 08:02:02 51°13.688 2°55.904 11.684251 0.000176 0.007755  
2001-12-17 08:03:02 51°13.688 2°55.905 11.683382 0.000176 0.00775  
2001-12-17 08:04:02 51°13.688 2°55.905 11.679497 0.000176 0.007744  
2001-12-17 08:05:01 51°13.688 2°55.904 11.683565 0.000176 0.007738  
2001-12-17 08:06:02 51°13.689 2°55.904 11.687085 0.000176 0.007735  
2001-12-17 08:07:01 51°13.689 2°55.904 11.697552 0.000176 0.007725  
2001-12-17 08:08:02 51°13.689 2°55.904 11.711171 0.000176 0.007718  
2001-12-17 08:09:02 51°13.689 2°55.904 11.724604 0.000176 0.00771  
2001-12-17 08:10:01 51°13.689 2°55.904 11.732233 0.000176 0.007702  
2001-12-17 08:11:02 51°13.689 2°55.904 11.720766 0.000275 0.008023  
2001-12-17 08:12:02 51°13.688 2°55.904 11.711719 0.000176 0.007687  
2001-12-17 08:13:01 51°13.688 2°55.904 11.699792 0.000176 0.007679  
2001-12-17 08:14:02 51°13.688 2°55.904 11.697324 0.000176 0.007673  
2001-12-17 08:15:02 51°13.687 2°55.904 11.682834 0.000176 0.007667  
2001-12-17 08:16:02 51°13.687 2°55.904 11.701026 0.000176 0.00766  
2001-12-17 08:17:03 51°13.691 2°55.886 11.729127 0.000176 0.007654  
2001-12-17 08:18:02 51°13.701 2°55.818 11.749955 0.000176 0.007648  
2001-12-17 08:19:02 51°13.704 2°55.751 11.740135 0.000176 0.007642  
2001-12-17 08:20:02 51°13.708 2°55.725 11.523233 0.000176 0.007637  
2001-12-17 08:21:02 51°13.79 2°55.676 11.738308 3.221569 24.695515  
2001-12-17 08:22:02 51°13.873 2°55.602 11.822026 1.847054 17.664451  
2001-12-17 08:23:02 51°13.959 2°55.54 11.156897 1.988733 19.396504  
2001-12-17 08:24:02 51°14.045 2°55.48 5.995281 2.313648 22.862679  
2001-12-17 08:25:02 51°14.129 2°55.415 6.046177 2.323344 23.034211  
2001-12-17 08:26:02 51°14.209 2°55.339 6.124984 2.251281 22.316182  
2001-12-17 08:27:02 51°14.297 2°55.196 5.649004 2.208809 21.883841  
2001-12-17 08:28:01 51°14.403 2°54.977 6.206778 2.187225 21.671502  
2001-12-17 08:29:02 51°14.417 2°54.637 5.993235 2.481912 24.795285  
2001-12-17 08:30:02 51°14.323 2°54.309 6.191901 2.716671 27.184239  
2001-12-17 08:31:02 51°14.226 2°53.979 6.666453 2.806825 28.103371  
2001-12-17 08:32:02 51°14.122 2°53.65 6.444541 2.869472 28.724063  
2001-12-17 08:33:02 51°14.011 2°53.318 6.087661 2.884284 28.856607  
2001-12-17 08:34:02 51°13.898 2°52.979 6.330588 2.877479 28.813195  
2001-12-17 08:35:02 51°13.784 2°52.636 6.82924 2.880681 28.848564  
2001-12-17 08:36:01 51°13.67 2°52.294 6.413605 2.871474 28.777826  
2001-12-17 08:37:01 51°13.553 2°51.943 6.38186 2.876979 28.832758  
2001-12-17 08:38:02 51°13.436 2°51.584 6.294529 2.874877 28.815435  
2001-12-17 08:39:02 51°13.32 2°51.231 6.469765 2.872475 28.789625  
2001-12-17 08:40:02 51°13.203 2°50.88 6.280815 2.856562 28.655672  
2001-12-17 08:41:02 51°13.087 2°50.529 6.81914 2.868271 28.751275  
2001-12-17 08:42:02 51°12.97 2°50.177 6.188019 2.867971 28.753115  
2001-12-17 08:43:02 51°12.854 2°49.823 6.636564 2.86637 28.743519  
2001-12-17 08:44:02 51°12.737 2°49.469 6.790259 2.867471 28.763068  
2001-12-17 08:45:02 51°12.621 2°49.115 6.740548 2.874377 28.818026  
2001-12-17 08:46:01 51°12.509 2°48.764 6.214191 2.880481 28.853737  
2001-12-17 08:47:02 51°12.396 2°48.397 6.528548 2.868972 28.765654  
2001-12-17 08:48:01 51°12.286 2°48.039 6.316832 2.864469 28.749772  
2001-12-17 08:49:02 51°12.172 2°47.673 6.370696 2.872975 28.80475  
2001-12-17 08:50:02 51°12.063 2°47.312 6.583519 2.880982 28.858527  
2001-12-17 08:51:02 51°11.968 2°46.944 6.460995 2.884985 28.889446  
2001-12-17 08:52:02 51°11.872 2°46.574 6.440923 2.889689 28.918467  
2001-12-17 08:53:02 51°11.776 2°46.204 6.533053 2.884685 28.878002  
2001-12-17 08:54:02 51°11.679 2°45.834 6.518895 2.888288 28.900046  
2001-12-17 08:55:02 51°11.582 2°45.464 6.87002 2.892491 28.925001  
2001-12-17 08:56:02 51°11.485 2°45.093 6.602507 2.897896 28.969085  
2001-12-17 08:57:02 51°11.387 2°44.724 6.45262 2.804422 27.927165  
2001-12-17 08:58:02 51°11.289 2°44.356 6.949927 2.908905 29.066038  
2001-12-17 08:59:02 51°11.191 2°43.989 6.929123 2.913609 29.100089  
2001-12-17 09:00:02 51°11.093 2°43.621 6.830817 2.916411 29.115391  
2001-12-17 09:01:02 51°10.993 2°43.253 6.740943 2.920015 29.134305  
2001-12-17 09:02:02 51°10.893 2°42.884 6.899357 2.92582 29.168529  
2001-12-17 09:03:02 51°10.799 2°42.512 7.093351 2.932526 29.212606  
2001-12-17 09:04:02 51°10.705 2°42.14 6.650399 2.939031 29.251453  
2001-12-17 09:05:02 51°10.612 2°41.77 6.926467 2.946138 29.299057  
2001-12-17 09:06:01 51°10.519 2°41.406 6.768663 2.952644 29.340747  
2001-12-17 09:07:02 51°10.422 2°41.031 6.765458 2.961052 29.39505  
2001-12-17 09:08:02 51°10.328 2°40.664 7.050996 2.970361 29.459119  
2001-12-17 09:09:02 51°10.234 2°40.298 6.716073 2.978769 29.518425  
2001-12-17 09:10:02 51°10.139 2°39.933 6.985322 2.984775 29.562539  
2001-12-17 09:11:02 51°10.044 2°39.57 7.000162 2.990481 29.604071  
2001-12-17 09:12:02 51°9.949 2°39.208 7.006598 2.993584 29.623831  
2001-12-17 09:13:01 51°9.864 2°38.846 7.379333 2.993884 29.623387  
2001-12-17 09:14:02 51°9.776 2°38.472 7.027082 2.998088 29.66038  
2001-12-17 09:15:02 51°9.69 2°38.105 7.133913 3.003494 29.715714  
2001-12-17 09:16:02 51°9.603 2°37.737 6.874894 3.005196 29.750769  
2001-12-17 09:17:02 51°9.522 2°37.365 7.072348 3.006898 29.778369  
2001-12-17 09:18:02 51°9.448 2°36.988 7.263714 3.006598 29.785579  
2001-12-17 09:19:02 51°9.373 2°36.61 6.607402 2.997689 29.734527  
2001-12-17 09:20:01 51°9.301 2°36.263 6.90413 2.987078 29.680446  
2001-12-17 09:21:02 51°9.322 2°36.077 6.396346 2.970262 29.573743  
2001-12-17 09:22:02 51°9.351 2°36.02 6.978588 2.951444 29.46857  
2001-12-17 09:23:03 51°9.34 2°35.99 7.166902 2.950043 29.466621  
2001-12-17 09:24:02 51°9.342 2°36.002 6.84392 2.975568 29.653119  
2001-12-17 09:25:02 51°9.323 2°36.027 6.955041 2.99789 29.812668  
2001-12-17 09:26:02 51°9.303 2°36.068 6.690009 2.97857 29.666598  
2001-12-17 09:27:02 51°9.297 2°36.109 6.769403 2.965858 29.570308  
2001-12-17 09:28:02 51°9.29 2°36.146 6.854066 2.958451 29.512018  
2001-12-17 09:29:02 51°9.283 2°36.177 6.924253 2.961954 29.53184  
2001-12-17 09:30:02 51°9.28 2°36.198 6.904229 2.977669 29.643915  
2001-12-17 09:31:02 51°9.274 2°36.213 7.037935 2.977469 29.640212  
2001-12-17 09:32:02 51°9.264 2°36.224 6.538101 2.980272 29.658999  
2001-12-17 09:33:01 51°9.251 2°36.231 6.567839 2.976068 29.62706  
2001-12-17 09:34:02 51°9.236 2°36.232 6.926319 2.973165 29.604156  
2001-12-17 09:35:02 51°9.22 2°36.226 6.687935 2.971964 29.59245  
2001-12-17 09:36:02 51°9.203 2°36.226 6.901276 2.973165 29.595904  
2001-12-17 09:37:02 51°9.194 2°36.246 6.825299 2.975167 29.606655  
2001-12-17 09:38:02 51°9.208 2°36.26 7.015146 2.982974 29.66316  
2001-12-17 09:39:02 51°9.238 2°36.248 6.891433 2.979871 29.639587  
2001-12-17 09:40:02 51°9.267 2°36.221 6.818154 2.979371 29.632589  
2001-12-17 09:41:02 51°9.291 2°36.188 6.906541 2.979671 29.629138  
2001-12-17 09:42:02 51°9.303 2°36.157 7.285289 2.981273 29.638475  
2001-12-17 09:43:02 51°9.318 2°36.137 6.58886 2.984976 29.664879  
2001-12-17 09:44:02 51°9.354 2°36.172 6.783258 2.994986 29.735668  
2001-12-17 09:45:02 51°9.363 2°36.213 7.080789 2.999491 29.767781  
2001-12-17 09:46:02 51°9.356 2°36.234 7.095951 3.001393 29.778111  
2001-12-17 09:47:02 51°9.349 2°36.24 7.301723 3.004496 29.797088  
2001-12-17 09:48:02 51°9.342 2°36.241 7.46963 3.004796 29.794369  
2001-12-17 09:49:02 51°9.332 2°36.238 7.22157 3.004997 29.793558  
2001-12-17 09:50:02 51°9.322 2°36.233 6.861994 3.002494 29.773657  
2001-12-17 09:51:02 51°9.314 2°36.225 6.923565 3.003094 29.773481  
2001-12-17 09:52:02 51°9.306 2°36.215 6.824806 3.007299 29.801501  
2001-12-17 09:53:02 51°9.298 2°36.202 6.919186 3.012004 29.835725  
2001-12-17 09:54:02 51°9.291 2°36.188 6.927008 3.015608 29.861633  
2001-12-17 09:55:02 51°9.285 2°36.176 7.073968 3.016008 29.866013  
2001-12-17 09:56:02 51°9.282 2°36.165 6.959171 3.013205 29.845114  
2001-12-17 09:57:02 51°9.282 2°36.154 6.987779 3.014006 29.85012  
2001-12-17 09:58:02 51°9.285 2°36.148 7.239733 3.011003 29.827024  
2001-12-17 09:59:02 51°9.29 2°36.147 7.099091 3.015007 29.85281  
2001-12-17 10:00:02 51°9.298 2°36.148 6.869133 3.01801 29.872886  
2001-12-17 10:01:02 51°9.305 2°36.15 6.634093 3.019512 29.880291  
2001-12-17 10:02:02 51°9.311 2°36.154 7.153914 3.019411 29.874691  
2001-12-17 10:03:02 51°9.317 2°36.159 7.106989 3.01801 29.865377  
2001-12-17 10:04:02 51°9.321 2°36.165 7.465045 3.016108 29.849087  
2001-12-17 10:05:02 51°9.327 2°36.169 6.78242 3.015007 29.838549  
2001-12-17 10:06:02 51°9.333 2°36.175 7.186747 3.015407 29.840676  
2001-12-17 10:07:02 51°9.333 2°36.185 7.106989 3.016308 29.847524  
2001-12-17 10:08:02 51°9.324 2°36.198 7.26709 3.015407 29.838425  
2001-12-17 10:09:02 51°9.318 2°36.212 7.106645 3.014506 29.829327  
2001-12-17 10:10:02 51°9.315 2°36.22 6.901178 3.014306 29.828638  
2001-12-17 10:11:02 51°9.314 2°36.222 6.961727 3.012604 29.813034  
2001-12-17 10:12:02 51°9.312 2°36.219 7.3336 3.010302 29.794608  
2001-12-17 10:13:02 51°9.311 2°36.213 7.006893 3.010802 29.801579  
2001-12-17 10:14:02 51°9.308 2°36.205 7.330618 3.009301 29.787409  
2001-12-17 10:15:02 51°9.305 2°36.195 7.094038 3.009301 29.78666  
2001-12-17 10:16:02 51°9.302 2°36.183 6.776651 3.010201 29.791266  
2001-12-17 10:17:02 51°9.296 2°36.171 7.142738 3.010402 29.790458  
2001-12-17 10:18:02 51°9.291 2°36.159 7.106008 3.011203 29.796215  
2001-12-17 10:19:02 51°9.285 2°36.147 7.149405 3.011603 29.799094  
2001-12-17 10:20:02 51°9.28 2°36.135 6.908559 3.011102 29.792874  
2001-12-17 10:21:02 51°9.274 2°36.127 6.911954 3.012103 29.801568  
2001-12-17 10:22:02 51°9.269 2°36.123 6.996133 3.012003 29.798227  
2001-12-17 10:23:02 51°9.265 2°36.122 7.204724 3.012304 29.797764  
2001-12-17 10:24:02 51°9.261 2°36.124 7.286953 3.013805 29.806682  
2001-12-17 10:25:02 51°9.264 2°36.136 7.126607 3.013505 29.802652  
2001-12-17 10:26:02 51°9.356 2°36.147 7.576942 3.013204 29.80012  
2001-12-17 10:27:02 51°9.545 2°36.11 7.173469 3.011703 29.773991  
2001-12-17 10:28:01 51°9.754 2°36.064 7.617588 3.013104 29.788548  
2001-12-17 10:29:02 51°9.974 2°36.007 7.215302 3.017709 29.835097  
2001-12-17 10:30:02 51°10.189 2°35.951 7.04913 3.016608 29.83131  
2001-12-17 10:31:02 51°10.396 2°35.967 6.975442 3.056453 30.215378  
2001-12-17 10:32:02 51°10.567 2°36.142 7.461631 3.064862 30.272365  
2001-12-17 10:33:02 51°10.717 2°36.362 7.456752 3.061057 30.186233  
2001-12-17 10:34:02 51°10.867 2°36.583 7.311307 3.06416 30.147706  
2001-12-17 10:35:02 51°10.997 2°36.836 7.492209 3.071768 30.151522  
2001-12-17 10:36:02 51°11.121 2°37.097 7.510344 3.076874 30.164176  
2001-12-17 10:37:02 51°11.24 2°37.366 7.262589 3.077074 30.157361  
2001-12-17 10:38:02 51°11.361 2°37.634 7.335799 3.075172 30.142738  
2001-12-17 10:39:02 51°11.481 2°37.902 7.494939 3.074371 30.139298  
2001-12-17 10:40:02 51°11.612 2°38.157 7.295121 3.073169 30.12553  
2001-12-17 10:41:02 51°11.77 2°38.368 7.425035 3.073069 30.12295  
2001-12-17 10:42:02 51°11.96 2°38.495 7.617442 3.076473 30.144867  
2001-12-17 10:43:02 51°12.154 2°38.609 7.486699 3.082981 30.186902  
2001-12-17 10:44:02 51°12.351 2°38.714 7.634471 3.088287 30.224119  
2001-12-17 10:45:02 51°12.547 2°38.818 7.735339 3.085183 30.207751  
2001-12-17 10:46:02 51°12.75 2°38.885 7.446848 3.083081 30.199965  
2001-12-17 10:47:02 51°12.938 2°39.011 8.139549 3.082981 30.19963  
2001-12-17 10:48:02 51°13.13 2°39.131 7.392764 3.088087 30.231689  
2001-12-17 10:49:02 51°13.332 2°39.218 7.919118 3.097898 30.286129  
2001-12-17 10:50:02 51°13.533 2°39.315 7.429379 3.109212 30.338678  
2001-12-17 10:51:02 51°13.734 2°39.41 7.460021 3.110313 30.338585  
2001-12-17 10:52:02 51°13.937 2°39.491 7.763602 3.109812 30.343663  
2001-12-17 10:53:02 51°14.142 2°39.573 8.072132 3.108311 30.339435  
2001-12-17 10:54:02 51°14.345 2°39.656 7.70648 3.110313 30.368546  
2001-12-17 10:55:03 51°14.555 2°39.726 7.463143 3.11552 30.430031  
2001-12-17 10:56:02 51°14.756 2°39.797 7.580253 3.121127 30.495125  
2001-12-17 10:57:02 51°14.959 2°39.862 7.569199 3.122729 30.513192  
2001-12-17 10:58:02 51°15.16 2°39.928 7.464314 3.120527 30.50521  
2001-12-17 10:59:02 51°15.361 2°39.993 7.689762 3.116822 30.485501  
2001-12-17 11:00:02 51°15.504 2°40.046 7.413954 3.113718 30.458707  
2001-12-17 11:01:02 51°15.571 2°40.067 7.660639 3.112316 30.44053  
2001-12-17 11:02:02 51°15.609 2°40.057 7.473435 3.113418 30.442655  
2001-12-17 11:03:02 51°15.629 2°40.033 7.604691 3.114419 30.443696  
2001-12-17 11:04:02 51°15.645 2°39.995 7.410098 3.11562 30.446902  
2001-12-17 11:05:02 51°15.643 2°39.956 7.336581 3.116221 30.448881  
2001-12-17 11:06:02 51°15.63 2°39.925 7.697441 3.116922 30.453446  
2001-12-17 11:07:02 51°15.61 2°39.897 7.418787 3.117122 30.454105  
2001-12-17 11:08:02 51°15.587 2°39.87 7.381092 3.117022 30.452271  
2001-12-17 11:09:02 51°15.559 2°39.846 7.504251 3.117322 30.452508  
2001-12-17 11:10:02 51°15.529 2°39.825 7.546356 3.117623 30.451993  
2001-12-17 11:11:02 51°15.498 2°39.804 7.551568 3.118924 30.461541  
2001-12-17 11:12:02 51°15.467 2°39.783 7.631796 3.119024 30.459614  
2001-12-17 11:13:02 51°15.435 2°39.76 7.233467 3.119425 30.46394  
2001-12-17 11:14:02 51°15.405 2°39.739 7.553663 3.119225 30.460273  
2001-12-17 11:15:02 51°15.375 2°39.718 7.435088 3.119124 30.459192  
2001-12-17 11:16:02 51°15.345 2°39.698 7.555026 3.119124 30.456184  
2001-12-17 11:17:02 51°15.317 2°39.659 7.596708 3.119425 30.458676  
2001-12-17 11:18:02 51°15.399 2°39.516 7.285094 3.119124 30.451674  
2001-12-17 11:19:02 51°15.593 2°39.493 7.554101 3.122829 30.475885  
2001-12-17 11:20:02 51°15.792 2°39.547 7.775787 3.134043 30.533703  
2001-12-17 11:21:02 51°15.986 2°39.644 7.694185 3.142553 30.578037  
2001-12-17 11:22:02 51°16.168 2°39.79 7.835079 3.148361 30.609727  
2001-12-17 11:23:02 51°16.346 2°39.95 7.843565 3.151865 30.633143  
2001-12-17 11:24:02 51°16.52 2°40.114 7.610337 3.153667 30.644257  
2001-12-17 11:25:02 51°16.695 2°40.28 7.574361 3.154468 30.652117  
2001-12-17 11:26:02 51°16.872 2°40.442 7.619923 3.156471 30.663874  
2001-12-17 11:27:02 51°17.049 2°40.603 7.710465 3.157873 30.676687  
2001-12-17 11:28:02 51°17.227 2°40.774 7.873138 3.162679 30.708033  
2001-12-17 11:29:02 51°17.408 2°40.944 7.611115 3.169188 30.74559  
2001-12-17 11:30:02 51°17.589 2°41.112 7.773506 3.171891 30.763328  
2001-12-17 11:31:02 51°17.769 2°41.282 7.82761 3.172192 30.769563  
2001-12-17 11:32:02 51°17.951 2°41.455 7.856123 3.170289 30.771722  
2001-12-17 11:33:02 51°18.135 2°41.627 8.146258 3.17089 30.780436  
2001-12-17 11:34:02 51°18.317 2°41.794 8.061453 3.174495 30.803329  
2001-12-17 11:35:02 51°18.498 2°41.968 7.544066 3.182205 30.850668  
2001-12-17 11:36:02 51°18.679 2°42.141 7.87624 3.189415 30.892563  
2001-12-17 11:37:02 51°18.862 2°42.31 8.137329 3.197926 30.940796  
2001-12-17 11:38:02 51°19.046 2°42.482 8.12444 3.202833 30.971468  
2001-12-17 11:39:02 51°19.229 2°42.652 7.952577 3.208741 31.012826  
2001-12-17 11:40:02 51°19.416 2°42.811 7.915485 3.21525 31.053776  
2001-12-17 11:41:02 51°19.606 2°42.969 8.151278 3.22276 31.096314  
2001-12-17 11:42:02 51°19.795 2°43.135 8.129074 3.230771 31.142615  
2001-12-17 11:43:02 51°19.986 2°43.298 7.967292 3.240185 31.197747  
2001-12-17 11:44:02 51°20.177 2°43.465 8.235628 3.246494 31.237062  
2001-12-17 11:45:02 51°20.367 2°43.632 8.162521 3.253403 31.275928  
2001-12-17 11:46:02 51°20.561 2°43.797 8.813408 3.260414 31.314288  
2001-12-17 11:47:02 51°20.753 2°43.965 7.963468 3.26492 31.348632  
2001-12-17 11:48:02 51°20.943 2°44.138 8.374956 3.270328 31.390273  
2001-12-17 11:49:02 51°21.136 2°44.304 8.737606 3.274935 31.424882  
2001-12-17 11:50:02 51°21.326 2°44.482 8.118694 3.278941 31.458386  
2001-12-17 11:51:02 51°21.519 2°44.649 8.091988 3.282847 31.491571  
2001-12-17 11:52:02 51°21.71 2°44.818 8.272102 3.288255 31.532368  
2001-12-17 11:53:02 51°21.9 2°44.992 8.564592 3.293864 31.572986  
2001-12-17 11:54:02 51°22.091 2°45.162 8.387219 3.29817 31.602784  
2001-12-17 11:55:02 51°22.281 2°45.335 8.250615 3.303178 31.637725  
2001-12-17 11:56:02 51°22.472 2°45.502 8.429229 3.308085 31.670815  
2001-12-17 11:57:02 51°22.661 2°45.675 8.21437 3.312592 31.699629  
2001-12-17 11:58:02 51°22.851 2°45.847 8.201641 3.317099 31.726137  
2001-12-17 11:59:02 51°23.041 2°46.019 8.821719 3.321506 31.749279  
2001-12-17 12:00:02 51°23.233 2°46.188 8.455316 3.325111 31.76087  
2001-12-17 12:01:02 51°23.424 2°46.355 8.741623 3.328817 31.77351  
2001-12-17 12:02:02 51°23.613 2°46.527 8.556728 3.334826 31.788484  
2001-12-17 12:03:01 51°23.801 2°46.689 8.74564 3.340134 31.790734  
2001-12-17 12:04:02 51°23.993 2°46.86 8.52171 3.346544 31.798561  
2001-12-17 12:05:02 51°24.18 2°47.029 8.802421 3.351251 31.811117  
2001-12-17 12:06:02 51°24.37 2°47.192 8.637819 3.354556 31.800617  
2001-12-17 12:07:02 51°24.562 2°47.365 8.643375 3.355858 31.794711  
2001-12-17 12:08:02 51°24.755 2°47.534 8.967462 3.356058 31.790791  
2001-12-17 12:09:02 51°24.951 2°47.694 9.024334 3.356659 31.784308  
2001-12-17 12:10:02 51°25.149 2°47.843 9.152899 3.35726 31.775575  
2001-12-17 12:11:02 51°25.344 2°48.003 9.164587 3.357861 31.77136  
2001-12-17 12:12:02 51°25.547 2°48.134 8.75415 3.358462 31.766396  
2001-12-17 12:13:02 51°25.75 2°48.267 8.778672 3.359463 31.755882  
2001-12-17 12:14:02 51°25.943 2°48.395 8.921842 3.360665 31.746733  
2001-12-17 12:15:02 51°26.023 2°48.467 8.869461 3.362968 31.744642  
2001-12-17 12:16:02 51°26.023 2°48.495 9.075686 3.365272 31.751537  
2001-12-17 12:17:03 51°26.008 2°48.494 9.507637 3.366474 31.755881  
2001-12-17 12:18:03 51°25.993 2°48.501 9.122386 3.366975 31.758127  
2001-12-17 12:19:02 51°25.974 2°48.513 8.826924 3.367876 31.757082  
2001-12-17 12:20:02 51°25.955 2°48.531 9.260814 3.368677 31.754992  
2001-12-17 12:21:03 51°25.941 2°48.531 9.372102 3.368777 31.75903  
2001-12-17 12:22:02 51°25.92 2°48.563 8.85729 3.368277 31.756037  
2001-12-17 12:23:02 51°25.932 2°48.646 9.357468 3.367475 31.75738  
2001-12-17 12:24:02 51°25.975 2°48.635 9.198499 3.366975 31.753638  
2001-12-17 12:25:02 51°25.983 2°48.602 9.366656 3.367275 31.752293  
2001-12-17 12:26:02 51°25.983 2°48.587 9.32525 3.367776 31.754539  
2001-12-17 12:27:02 51°25.98 2°48.579 9.442625 3.367976 31.756634  
2001-12-17 12:28:02 51°25.971 2°48.576 9.014812 3.368076 31.75469  
2001-12-17 12:29:02 51°25.96 2°48.575 9.288986 3.368076 31.756185  
2001-12-17 12:30:02 51°25.946 2°48.583 9.213122 3.368377 31.754841  
2001-12-17 12:31:02 51°25.933 2°48.593 9.056892 3.368777 31.758282  
2001-12-17 12:32:02 51°25.921 2°48.6 9.057082 3.368577 31.756935  
2001-12-17 12:33:02 51°25.908 2°48.606 8.787896 3.368677 31.757983  
2001-12-17 12:34:02 51°25.896 2°48.611 9.28946 3.368677 31.757235  
2001-12-17 12:35:02 51°25.886 2°48.615 9.12985 3.367676 31.751996  
2001-12-17 12:36:02 51°25.877 2°48.619 9.325061 3.367575 31.7502  
2001-12-17 12:37:02 51°25.867 2°48.626 9.282632 3.367676 31.751996  
2001-12-17 12:38:02 51°25.857 2°48.634 9.089386 3.367475 31.752144  
2001-12-17 12:39:02 51°25.849 2°48.641 9.125001 3.367475 31.752144  
2001-12-17 12:40:02 51°25.841 2°48.647 9.16701 3.367475 31.749901  
2001-12-17 12:41:02 51°25.833 2°48.654 9.085771 3.367575 31.750948  
2001-12-17 12:42:02 51°25.826 2°48.664 9.045375 3.367175 31.750497  
2001-12-17 12:43:02 51°25.818 2°48.673 9.197217 3.366774 31.748551  
2001-12-17 12:44:02 51°25.768 2°48.565 9.081775 3.366774 31.751543  
2001-12-17 12:45:02 51°25.568 2°48.573 9.033904 3.366173 31.7475  
2001-12-17 12:46:02 51°25.347 2°48.655 9.154895 3.364871 31.748841  
2001-12-17 12:47:02 51°25.128 2°48.733 8.737367 3.362568 31.756177  
2001-12-17 12:48:02 51°24.908 2°48.817 8.651373 3.362167 31.771475  
2001-12-17 12:49:02 51°24.686 2°48.894 9.14387 3.361967 31.779882  
2001-12-17 12:50:02 51°24.466 2°48.981 9.131418 3.362368 31.792344  
2001-12-17 12:51:02 51°24.243 2°49.061 8.538358 3.361967 31.807686  
2001-12-17 12:52:02 51°24.024 2°49.138 8.961362 3.360666 31.8294  
2001-12-17 12:53:02 51°23.803 2°49.219 9.03438 3.360966 31.834063  
2001-12-17 12:54:02 51°23.585 2°49.3 8.67445 3.362068 31.851671  
2001-12-17 12:55:02 51°23.367 2°49.364 8.568668 3.361668 31.858024  
2001-12-17 12:56:02 51°23.146 2°49.432 8.76572 3.360366 31.875301  
2001-12-17 12:57:02 51°22.93 2°49.498 8.549774 3.357061 31.877576  
2001-12-17 12:58:02 51°22.71 2°49.589 8.699337 3.341637 31.836928  
2001-12-17 12:59:02 51°22.49 2°49.674 8.737654 3.328817 31.778828  
2001-12-17 13:00:02 51°22.27 2°49.766 8.532793 3.322107 31.744243  
2001-12-17 13:01:02 51°22.058 2°49.875 8.605912 3.314195 31.702181  
2001-12-17 13:02:02 51°21.844 2°49.98 8.264732 3.303679 31.640002  
2001-12-17 13:03:02 51°21.633 2°50.092 8.085563 3.29116 31.559439  
2001-12-17 13:04:02 51°21.418 2°50.195 8.188523 3.266523 31.407334  
2001-12-17 13:05:02 51°21.204 2°50.311 7.835564 3.251301 31.315564  
2001-12-17 13:06:02 51°20.991 2°50.42 8.410967 3.237882 31.238224  
2001-12-17 13:07:02 51°20.772 2°50.526 7.547817 3.229771 31.198496  
2001-12-17 13:08:02 51°20.556 2°50.626 7.93631 3.225565 31.182303  
2001-12-17 13:09:02 51°20.344 2°50.733 8.054832 3.217053 31.170061  
2001-12-17 13:10:02 51°20.133 2°50.832 7.871054 3.211246 31.136619  
2001-12-17 13:11:02 51°19.915 2°50.937 7.794182 3.206239 31.107937  
2001-12-17 13:12:02 51°19.696 2°51.042 7.93752 3.197927 31.062704  
2001-12-17 13:13:02 51°19.478 2°51.145 7.938246 3.178702 30.949235  
2001-12-17 13:14:02 51°19.263 2°51.248 7.435869 3.165585 30.867044  
2001-12-17 13:15:02 51°19.05 2°51.358 7.262295 3.156373 30.812396  
2001-12-17 13:16:02 51°18.844 2°51.462 7.33663 3.140252 30.672342  
2001-12-17 13:17:02 51°18.635 2°51.562 7.453094 3.118725 30.517403  
2001-12-17 13:18:02 51°18.424 2°51.671 7.244726 3.095597 30.36189  
2001-12-17 13:19:02 51°18.215 2°51.766 7.2848 3.083282 30.265944  
2001-12-17 13:20:02 51°18.003 2°51.868 7.162198 3.07307 30.191172  
2001-12-17 13:21:02 51°17.794 2°51.967 7.591305 3.064861 30.135788  
2001-12-17 13:22:02 51°17.585 2°52.07 7.058409 3.062959 30.122622  
2001-12-17 13:23:02 51°17.377 2°52.189 7.263372 3.057252 30.078595  
2001-12-17 13:24:02 51°17.173 2°52.335 7.269145 3.047541 30.001463  
2001-12-17 13:25:02 51°16.974 2°52.502 7.16749 3.03763 29.922805  
2001-12-17 13:26:02 51°16.776 2°52.678 7.364434 3.032224 29.882644  
2001-12-17 13:27:02 51°16.578 2°52.861 7.380896 3.02812 29.846168  
2001-12-17 13:28:02 51°16.385 2°53.045 6.930205 3.023415 29.806123  
2001-12-17 13:29:02 51°16.192 2°53.237 6.850027 3.010801 29.700009  
2001-12-17 13:30:02 51°16 2°53.422 7.060912 2.985976 29.531046  
2001-12-17 13:31:02 51°15.806 2°53.605 6.943091 2.972863 29.456783  
2001-12-17 13:32:02 51°15.612 2°53.784 6.83392 2.970961 29.4486  
2001-12-17 13:33:02 51°15.416 2°53.963 7.123909 2.967558 29.435861  
2001-12-17 13:34:02 51°15.222 2°54.138 6.827664 2.963154 29.429245  
2001-12-17 13:35:02 51°15.027 2°54.317 6.250246 2.956448 29.389167  
2001-12-17 13:36:02 51°14.837 2°54.508 6.587772 2.945037 29.29885  
2001-12-17 13:37:02 51°14.653 2°54.71 6.192946 2.931825 29.201196  
2001-12-17 13:38:03 51°14.475 2°54.918 6.375559 2.917412 29.08641  
2001-12-17 13:39:02 51°14.316 2°55.167 6.374467 2.909705 29.021579  
2001-12-17 13:40:02 51°14.163 2°55.377 6.379429 2.823036 28.190441  
2001-12-17 13:41:02 51°14.03 2°55.482 7.931903 0.038045 0.289946  
2001-12-17 13:42:02 51°13.915 2°55.565 8.621964 0.030746 0.231947  
2001-12-17 13:43:02 51°13.824 2°55.631 8.256686 0.563176 4.238586  
2001-12-17 13:44:02 51°13.766 2°55.691 8.295941 0.865377 6.568919  
2001-12-17 13:45:02 51°13.73 2°55.754 9.488589 0.237351 1.52201  
2001-12-17 13:46:02 51°13.706 2°55.816 8.622299 0.09429 0.583028  
2001-12-17 13:47:02 51°13.694 2°55.876 9.002954 0.063399 0.389358  
2001-12-17 13:48:02 51°13.685 2°55.909 8.821958 0.058367 0.360396  
2001-12-17 13:49:03 51°13.686 2°55.901 9.093429 0.056887 0.354169  
2001-12-17 13:50:06 51°13.684 2°55.904 10.194155 0.029463 0.181549